createdAt,value
2019-02-04T00:01:30.695Z,4.30
2019-02-04T00:04:08.504Z,4.40
2019-02-04T00:06:37.208Z,4.30
2019-02-04T00:09:08.290Z,4.40
2019-02-04T00:11:36.952Z,4.40
2019-02-04T00:14:14.591Z,4.50
2019-02-04T00:16:43.276Z,4.30
2019-02-04T00:19:12.021Z,4.30
2019-02-04T00:21:40.714Z,4.40
2019-02-04T00:24:18.257Z,4.30
2019-02-04T00:26:51.640Z,4.40
2019-02-04T00:29:18.073Z,4.40
2019-02-04T00:31:46.886Z,4.40
2019-02-04T00:34:15.565Z,4.50
2019-02-04T00:36:44.311Z,4.40
2019-02-04T00:39:12.989Z,4.60
2019-02-04T00:41:41.981Z,4.80
2019-02-04T00:44:20.704Z,4.70
2019-02-04T00:46:52.295Z,4.60
2019-02-04T00:49:20.193Z,4.70
2019-02-04T00:51:49.104Z,4.90
2019-02-04T00:54:27.133Z,4.90
2019-02-04T00:56:56.024Z,5.00
2019-02-04T00:59:25.017Z,5.10
2019-02-04T01:01:53.763Z,5.00
2019-02-04T01:04:31.818Z,5.00
2019-02-04T01:07:00.743Z,4.80
2019-02-04T01:09:29.377Z,4.70
2019-02-04T01:11:58.136Z,4.70
2019-02-04T01:14:36.189Z,4.70
2019-02-04T01:17:04.851Z,4.60
2019-02-04T01:19:33.576Z,4.50
2019-02-04T01:22:02.301Z,4.40
2019-02-04T01:24:40.198Z,4.30
2019-02-04T01:27:09.021Z,4.20
2019-02-04T01:29:37.670Z,4.10
2019-02-04T01:32:06.631Z,4.20
2019-02-04T01:34:44.725Z,4.10
2019-02-04T01:37:13.437Z,4.00
2019-02-04T01:39:42.247Z,3.80
2019-02-04T01:42:10.931Z,3.70
2019-02-04T01:44:49.100Z,3.80
2019-02-04T01:47:17.869Z,3.80
2019-02-04T01:49:46.661Z,3.70
2019-02-04T01:52:15.381Z,3.60
2019-02-04T01:54:53.305Z,3.70
2019-02-04T01:57:22.026Z,3.70
2019-02-04T01:59:50.721Z,3.70
2019-02-04T02:02:19.455Z,3.70
2019-02-04T02:04:57.502Z,3.70
2019-02-04T02:07:26.327Z,3.80
2019-02-04T02:09:55.079Z,3.80
2019-02-04T02:12:23.804Z,3.80
2019-02-04T02:15:01.961Z,3.80
2019-02-04T02:17:30.737Z,3.70
2019-02-04T02:19:59.447Z,3.60
2019-02-04T02:22:28.114Z,3.60
2019-02-04T02:25:06.145Z,3.50
2019-02-04T02:27:34.864Z,3.50
2019-02-04T02:30:03.736Z,3.30
2019-02-04T02:32:32.443Z,3.40
2019-02-04T02:35:11.156Z,3.00
2019-02-04T02:37:39.827Z,3.20
2019-02-04T02:40:22.646Z,3.10
2019-02-04T02:42:51.350Z,3.20
2019-02-04T02:45:41.949Z,3.20
2019-02-04T02:48:10.656Z,3.10
2019-02-04T02:50:39.604Z,3.10
2019-02-04T02:53:08.386Z,3.20
2019-02-04T02:55:46.367Z,3.30
2019-02-04T02:58:15.062Z,3.40
2019-02-04T03:00:43.849Z,3.50
2019-02-04T03:03:12.560Z,3.50
2019-02-04T03:05:50.662Z,3.70
2019-02-04T03:08:19.693Z,3.80
2019-02-04T03:10:48.376Z,3.90
2019-02-04T03:13:19.100Z,3.80
2019-02-04T03:15:59.875Z,4.00
2019-02-04T03:18:28.580Z,3.90
2019-02-04T03:20:57.280Z,4.00
2019-02-04T03:23:25.953Z,4.20
2019-02-04T03:26:03.745Z,4.10
2019-02-04T03:28:32.490Z,4.10
2019-02-04T03:31:01.590Z,4.20
2019-02-04T03:33:30.410Z,4.20
2019-02-04T03:36:08.132Z,4.10
2019-02-04T03:38:36.800Z,3.90
2019-02-04T03:41:05.523Z,3.80
2019-02-04T03:43:34.269Z,3.90
2019-02-04T03:46:12.370Z,3.80
2019-02-04T03:48:41.104Z,3.80
2019-02-04T03:51:09.787Z,3.80
2019-02-04T03:53:38.813Z,3.70
2019-02-04T03:56:16.412Z,3.60
2019-02-04T03:58:45.096Z,3.50
2019-02-04T04:01:13.775Z,3.50
2019-02-04T04:03:42.451Z,3.40
2019-02-04T04:06:20.252Z,3.30
2019-02-04T04:08:49.023Z,3.20
2019-02-04T04:11:17.779Z,3.10
2019-02-04T04:13:46.451Z,3.10
2019-02-04T04:16:15.347Z,3.10
2019-02-04T04:18:44.075Z,3.10
2019-02-04T04:21:12.874Z,3.10
2019-02-04T04:23:41.691Z,3.10
2019-02-04T04:26:19.747Z,3.10
2019-02-04T04:28:48.529Z,3.00
2019-02-04T04:31:17.284Z,3.00
2019-02-04T04:33:45.951Z,3.00
2019-02-04T04:36:23.586Z,3.00
2019-02-04T04:38:52.234Z,3.00
2019-02-04T04:41:21.169Z,2.90
2019-02-04T04:43:49.842Z,2.90
2019-02-04T04:46:27.447Z,2.90
2019-02-04T04:48:56.676Z,2.90
2019-02-04T04:51:25.368Z,2.80
2019-02-04T04:53:54.552Z,2.80
2019-02-04T04:56:32.452Z,2.70
2019-02-04T04:59:01.097Z,2.70
2019-02-04T05:01:29.765Z,2.60
2019-02-04T05:03:58.468Z,2.50
2019-02-04T05:06:36.099Z,2.40
2019-02-04T05:09:14.179Z,2.40
2019-02-04T05:11:43.313Z,2.40
2019-02-04T05:14:12.747Z,2.40
2019-02-04T05:16:41.754Z,2.30
2019-02-04T05:19:19.390Z,2.40
2019-02-04T05:21:48.172Z,2.40
2019-02-04T05:24:17.228Z,2.40
2019-02-04T05:26:46.204Z,2.40
2019-02-04T05:29:24.368Z,2.40
2019-02-04T05:31:53.076Z,2.50
2019-02-04T05:34:21.886Z,2.40
2019-02-04T05:36:50.684Z,2.30
2019-02-04T05:39:28.851Z,2.30
2019-02-04T05:41:58.140Z,2.30
2019-02-04T05:44:26.940Z,2.30
2019-02-04T05:46:56.103Z,2.20
2019-02-04T05:49:33.976Z,2.20
2019-02-04T05:52:02.768Z,2.20
2019-02-04T05:54:32.482Z,2.20
2019-02-04T05:57:01.265Z,2.20
2019-02-04T05:59:38.803Z,2.20
2019-02-04T06:02:09.469Z,2.20
2019-02-04T06:04:38.246Z,2.10
2019-02-04T06:07:07.172Z,2.10
2019-02-04T06:09:45.259Z,2.10
2019-02-04T06:12:13.885Z,2.00
2019-02-04T06:14:42.794Z,2.00
2019-02-04T06:17:11.757Z,2.00
2019-02-04T06:19:49.873Z,2.10
2019-02-04T06:22:18.580Z,2.10
2019-02-04T06:24:47.281Z,2.10
2019-02-04T06:27:16.029Z,2.00
2019-02-04T06:32:28.661Z,2.00
2019-02-04T06:34:57.389Z,1.90
2019-02-04T06:37:26.076Z,1.80
2019-02-04T06:40:04.599Z,1.80
2019-02-04T06:42:33.605Z,1.70
2019-02-04T06:45:02.312Z,1.70
2019-02-04T06:47:31.004Z,1.80
2019-02-04T06:50:10.813Z,1.80
2019-02-04T06:52:39.896Z,1.80
2019-02-04T06:55:14.208Z,1.80
2019-02-04T06:57:42.888Z,1.90
2019-02-04T07:00:20.491Z,1.90
2019-02-04T07:02:49.487Z,2.00
2019-02-04T07:05:18.698Z,2.00
2019-02-04T07:07:47.483Z,2.20
2019-02-04T07:10:25.679Z,2.30
2019-02-04T07:12:54.495Z,2.30
2019-02-04T07:15:23.228Z,2.40
2019-02-04T07:17:51.928Z,2.40
2019-02-04T07:20:29.900Z,2.50
2019-02-04T07:22:58.552Z,2.50
2019-02-04T07:25:27.718Z,2.70
2019-02-04T07:27:56.507Z,2.90
2019-02-04T07:30:34.776Z,3.00
2019-02-04T07:33:03.619Z,3.10
2019-02-04T07:35:32.292Z,3.00
2019-02-04T07:38:01.078Z,3.10
2019-02-04T07:40:38.996Z,3.30
2019-02-04T07:43:07.730Z,3.60
2019-02-04T07:45:36.549Z,4.30
2019-02-04T07:48:05.413Z,5.30
2019-02-04T07:50:43.395Z,6.20
2019-02-04T07:53:12.177Z,7.00
2019-02-04T07:55:40.996Z,8.00
2019-02-04T07:58:09.885Z,8.70
2019-02-04T08:00:51.193Z,9.00
2019-02-04T08:03:20.023Z,9.40
2019-02-04T08:05:48.790Z,10.20
2019-02-04T08:08:17.713Z,11.10
2019-02-04T08:10:55.408Z,12.00
2019-02-04T08:13:24.287Z,12.90
2019-02-04T08:15:53.188Z,13.70
2019-02-04T08:18:22.064Z,14.60
2019-02-04T08:21:00.372Z,15.50
2019-02-04T08:23:29.165Z,16.20
2019-02-04T08:25:57.952Z,16.60
2019-02-04T08:28:26.793Z,17.20
2019-02-04T08:31:07.949Z,17.60
2019-02-04T08:33:36.661Z,18.10
2019-02-04T08:36:05.385Z,18.80
2019-02-04T08:38:34.093Z,19.10
2019-02-04T08:41:12.552Z,19.30
2019-02-04T08:43:41.356Z,19.90
2019-02-04T08:46:10.160Z,20.50
2019-02-04T08:48:39.328Z,21.10
2019-02-04T08:51:19.949Z,22.00
2019-02-04T08:53:48.658Z,22.80
2019-02-04T08:56:17.403Z,23.00
2019-02-04T08:58:46.259Z,22.40
2019-02-04T09:01:24.195Z,22.90
2019-02-04T09:03:52.945Z,23.30
2019-02-04T09:06:21.820Z,23.30
2019-02-04T09:08:50.911Z,23.50
2019-02-04T09:11:31.909Z,23.70
2019-02-04T09:14:01.135Z,23.90
2019-02-04T09:16:30.044Z,23.50
2019-02-04T09:18:59.116Z,23.30
2019-02-04T09:21:37.298Z,23.40
2019-02-04T09:24:06.089Z,23.50
2019-02-04T09:26:34.776Z,23.50
2019-02-04T09:29:03.554Z,23.20
2019-02-04T09:31:41.204Z,23.10
2019-02-04T09:34:10.100Z,23.50
2019-02-04T09:36:38.836Z,24.40
2019-02-04T09:39:09.823Z,25.10
2019-02-04T09:44:13.115Z,26.70
2019-02-04T09:46:42.057Z,27.50
2019-02-04T09:49:10.822Z,27.80
2019-02-04T09:51:49.037Z,27.90
2019-02-04T09:54:18.315Z,28.10
2019-02-04T09:56:47.190Z,28.30
2019-02-04T09:59:15.985Z,28.50
2019-02-04T10:01:54.026Z,29.00
2019-02-04T10:04:22.760Z,29.00
2019-02-04T10:06:52.103Z,29.00
2019-02-04T10:09:20.784Z,28.90
2019-02-04T10:11:58.692Z,28.50
2019-02-04T10:14:27.426Z,28.20
2019-02-04T10:16:56.318Z,28.30
2019-02-04T10:19:25.083Z,28.40
2019-02-04T10:22:03.133Z,29.00
2019-02-04T10:24:31.886Z,29.40
2019-02-04T10:27:00.669Z,29.80
2019-02-04T10:29:29.452Z,30.30
2019-02-04T10:32:07.291Z,31.20
2019-02-04T10:34:36.023Z,31.80
2019-02-04T10:37:05.210Z,31.70
2019-02-04T10:39:33.947Z,31.40
2019-02-04T10:42:02.687Z,31.40
2019-02-04T10:44:31.429Z,31.40
2019-02-04T10:47:00.859Z,30.70
2019-02-04T10:49:29.585Z,30.30
2019-02-04T10:52:07.179Z,29.80
2019-02-04T10:54:35.869Z,29.80
2019-02-04T10:57:04.569Z,30.70
2019-02-04T10:59:33.306Z,30.70
2019-02-04T11:02:11.526Z,30.60
2019-02-04T11:04:40.544Z,30.60
2019-02-04T11:07:09.345Z,30.30
2019-02-04T11:09:38.225Z,30.70
2019-02-04T11:12:16.022Z,30.50
2019-02-04T11:14:44.787Z,30.70
2019-02-04T11:17:13.817Z,31.60
2019-02-04T11:19:42.800Z,32.50
2019-02-04T11:22:20.773Z,33.00
2019-02-04T11:24:49.963Z,33.80
2019-02-04T11:27:18.749Z,32.70
2019-02-04T11:29:47.448Z,32.40
2019-02-04T11:32:25.355Z,32.80
2019-02-04T11:34:54.185Z,31.20
2019-02-04T11:37:23.332Z,30.00
2019-02-04T11:39:52.557Z,29.20
2019-02-04T11:42:21.373Z,29.30
2019-02-04T11:44:50.114Z,30.20
2019-02-04T11:47:19.031Z,30.40
2019-02-04T11:49:47.729Z,30.00
2019-02-04T11:52:25.538Z,30.70
2019-02-04T11:54:54.289Z,31.30
2019-02-04T11:57:28.976Z,31.30
2019-02-04T11:59:57.833Z,30.90
2019-02-04T12:02:35.993Z,31.40
2019-02-04T12:05:05.800Z,30.80
2019-02-04T12:07:34.734Z,30.80
2019-02-04T12:10:04.188Z,30.80
2019-02-04T12:12:42.272Z,30.80
2019-02-04T12:15:13.368Z,29.60
2019-02-04T12:17:42.471Z,29.50
2019-02-04T12:20:12.356Z,29.80
2019-02-04T12:22:50.554Z,29.80
2019-02-04T12:25:21.409Z,29.90
2019-02-04T12:27:50.191Z,28.60
2019-02-04T12:30:30.888Z,28.70
2019-02-04T12:33:09.800Z,28.70
2019-02-04T12:35:38.784Z,27.70
2019-02-04T12:38:07.668Z,27.30
2019-02-04T12:40:36.854Z,27.60
2019-02-04T12:43:05.776Z,26.20
2019-02-04T12:45:34.853Z,26.10
2019-02-04T12:48:03.743Z,26.30
2019-02-04T12:50:32.511Z,27.30
2019-02-04T12:53:10.623Z,27.50
2019-02-04T12:55:39.343Z,27.60
2019-02-04T12:58:08.857Z,26.70
2019-02-04T13:00:37.631Z,26.50
2019-02-04T13:03:15.822Z,26.70
2019-02-04T13:05:50.348Z,25.00
2019-02-04T13:08:19.274Z,22.70
2019-02-04T13:10:47.961Z,19.40
2019-02-04T13:13:26.142Z,17.10
2019-02-04T13:15:54.873Z,14.60
2019-02-04T13:18:24.056Z,12.80
2019-02-04T13:20:52.853Z,11.50
2019-02-04T13:23:30.891Z,10.00
2019-02-04T13:25:59.602Z,9.10
2019-02-04T13:28:28.535Z,8.50
2019-02-04T13:30:57.264Z,8.40
2019-02-04T13:33:36.151Z,8.30
2019-02-04T13:36:05.106Z,8.00
2019-02-04T13:38:34.045Z,7.90
2019-02-04T13:41:08.205Z,7.80
2019-02-04T13:43:42.921Z,7.30
2019-02-04T13:46:11.866Z,7.10
2019-02-04T13:48:40.633Z,7.10
2019-02-04T13:51:09.350Z,6.90
2019-02-04T13:53:49.770Z,7.20
2019-02-04T13:56:18.636Z,7.10
2019-02-04T13:58:47.391Z,7.00
2019-02-04T14:01:16.522Z,7.20
2019-02-04T14:03:54.557Z,7.00
2019-02-04T14:06:23.291Z,6.90
2019-02-04T14:08:52.284Z,6.90
2019-02-04T14:11:21.189Z,6.90
2019-02-04T14:14:02.108Z,7.10
2019-02-04T14:16:30.805Z,6.80
2019-02-04T14:18:59.624Z,6.50
2019-02-04T14:21:28.883Z,6.50
2019-02-04T14:24:07.009Z,6.30
2019-02-04T14:26:35.731Z,6.20
2019-02-04T14:29:04.651Z,6.10
2019-02-04T14:31:35.337Z,6.30
2019-02-04T14:34:14.970Z,6.10
2019-02-04T14:36:43.849Z,6.20
2019-02-04T14:39:14.748Z,6.00
2019-02-04T14:41:52.595Z,6.10
2019-02-04T14:44:34.065Z,6.10
2019-02-04T14:47:30.698Z,5.90
2019-02-04T14:50:21.644Z,5.90
2019-02-04T14:53:38.647Z,6.10
2019-02-04T14:56:21.483Z,5.80
2019-02-04T14:59:07.100Z,6.00
2019-02-04T15:02:18.696Z,6.30
2019-02-04T15:05:44.808Z,6.40
2019-02-04T15:09:04.736Z,6.40
2019-02-04T15:15:11.798Z,6.50
2019-02-04T15:18:21.218Z,6.40
2019-02-04T15:21:28.295Z,6.30
2019-02-04T15:24:24.491Z,6.40
2019-02-04T15:27:21.082Z,6.50
2019-02-04T15:29:54.778Z,6.00
2019-02-04T15:33:05.062Z,6.30
2019-02-04T15:36:14.731Z,6.40
2019-02-04T15:39:18.366Z,6.40
2019-02-04T15:42:42.917Z,6.20
2019-02-04T15:45:41.331Z,6.10
2019-02-04T15:48:18.142Z,6.00
2019-02-04T15:51:07.340Z,6.00
2019-02-04T15:53:46.323Z,6.00
2019-02-04T15:56:15.417Z,5.70
2019-02-04T15:58:44.548Z,5.70
2019-02-04T16:01:13.317Z,5.70
2019-02-04T16:03:51.344Z,5.60
2019-02-04T16:06:20.029Z,5.50
2019-02-04T16:08:48.981Z,5.40
2019-02-04T16:11:17.728Z,5.20
2019-02-04T16:16:30.453Z,5.30
2019-02-04T16:18:59.508Z,5.20
2019-02-04T16:21:28.339Z,4.90
2019-02-04T16:23:57.336Z,4.70
2019-02-04T16:26:26.119Z,4.90
2019-02-04T16:28:55.082Z,4.80
2019-02-04T16:31:23.797Z,4.70
2019-02-04T16:33:52.501Z,4.80
2019-02-04T16:36:21.514Z,4.90
2019-02-04T16:38:50.261Z,4.80
2019-02-04T16:41:19.226Z,4.90
2019-02-04T16:43:57.353Z,4.90
2019-02-04T16:46:26.216Z,4.80
2019-02-04T16:48:54.944Z,4.70
2019-02-04T16:51:23.678Z,4.70
2019-02-04T16:54:03.816Z,4.70
2019-02-04T16:56:32.651Z,4.70
2019-02-04T16:59:01.584Z,4.70
2019-02-04T17:01:36.569Z,4.70
2019-02-04T17:04:14.541Z,4.80
2019-02-04T17:06:43.757Z,4.80
2019-02-04T17:09:13.473Z,4.80
2019-02-04T17:11:42.359Z,4.70
2019-02-04T17:14:20.458Z,4.70
2019-02-04T17:16:49.393Z,4.60
2019-02-04T17:19:18.295Z,4.60
2019-02-04T17:21:47.120Z,4.40
2019-02-04T17:24:25.155Z,4.20
2019-02-04T17:26:54.167Z,4.20
2019-02-04T17:29:23.023Z,4.10
2019-02-04T17:31:51.816Z,4.00
2019-02-04T17:34:29.818Z,3.70
2019-02-04T17:36:58.554Z,3.70
2019-02-04T17:39:27.303Z,3.40
2019-02-04T17:41:56.376Z,3.40
2019-02-04T17:44:34.159Z,3.40
2019-02-04T17:47:03.537Z,3.50
2019-02-04T17:49:32.278Z,3.50
2019-02-04T17:52:01.905Z,2.90
2019-02-04T17:57:06.218Z,3.00
2019-02-04T17:59:35.052Z,3.10
2019-02-04T18:02:04.015Z,2.90
2019-02-04T18:04:41.750Z,2.70
2019-02-04T18:07:10.471Z,2.60
2019-02-04T18:09:39.278Z,2.80
2019-02-04T18:12:08.164Z,2.80
2019-02-04T18:14:37.582Z,2.70
2019-02-04T18:17:06.380Z,2.70
2019-02-04T18:19:35.382Z,2.90
2019-02-04T18:22:04.503Z,3.00
2019-02-04T18:24:42.496Z,3.10
2019-02-04T18:27:12.196Z,3.10
2019-02-04T18:29:41.416Z,3.10
2019-02-04T18:32:11.539Z,3.10
2019-02-04T18:34:49.866Z,3.10
2019-02-04T18:37:19.523Z,3.30
2019-02-04T18:39:49.701Z,3.10
2019-02-04T18:42:19.525Z,3.10
2019-02-04T18:44:58.757Z,3.10
2019-02-04T18:47:28.609Z,3.00
2019-02-04T18:49:58.245Z,2.80
2019-02-04T18:52:28.147Z,2.70
2019-02-04T18:55:07.146Z,2.60
2019-02-04T18:57:36.625Z,2.70
2019-02-04T19:00:06.774Z,2.60
2019-02-04T19:02:36.354Z,2.30
2019-02-04T19:05:15.680Z,2.50
2019-02-04T19:07:45.909Z,2.40
2019-02-04T19:10:17.399Z,2.40
2019-02-04T19:12:46.449Z,2.50
2019-02-04T19:15:25.539Z,2.60
2019-02-04T19:17:57.386Z,2.70
2019-02-04T19:20:26.659Z,2.60
2019-02-04T19:22:56.159Z,2.40
2019-02-04T19:25:34.760Z,2.40
2019-02-04T19:28:04.010Z,2.40
2019-02-04T19:30:39.860Z,2.40
2019-02-04T19:33:09.573Z,2.60
2019-02-04T19:35:48.384Z,2.50
2019-02-04T19:38:18.711Z,2.30
2019-02-04T19:40:48.692Z,2.20
2019-02-04T19:43:19.257Z,2.00
2019-02-04T19:45:58.224Z,2.00
2019-02-04T19:48:28.168Z,1.90
2019-02-04T19:50:58.330Z,2.00
2019-02-04T19:53:28.216Z,2.20
2019-02-04T19:56:07.848Z,2.30
2019-02-04T19:58:37.608Z,2.40
2019-02-04T20:01:08.285Z,2.30
2019-02-04T20:03:38.290Z,2.30
2019-02-04T20:06:17.521Z,2.30
2019-02-04T20:08:48.030Z,2.30
2019-02-04T20:11:18.550Z,2.20
2019-02-04T20:13:49.455Z,2.20
2019-02-04T20:16:28.859Z,2.30
2019-02-04T20:18:58.857Z,2.20
2019-02-04T20:21:28.801Z,2.20
2019-02-04T20:23:58.927Z,2.10
2019-02-04T20:26:38.013Z,2.20
2019-02-04T20:29:07.726Z,2.10
2019-02-04T20:31:38.428Z,2.00
2019-02-04T20:34:08.378Z,2.00
2019-02-04T20:36:48.979Z,1.90
2019-02-04T20:39:18.975Z,1.90
2019-02-04T20:41:48.705Z,1.70
2019-02-04T20:44:19.323Z,1.70
2019-02-04T20:46:58.450Z,2.00
2019-02-04T20:49:28.448Z,1.90
2019-02-04T20:51:58.171Z,1.80
2019-02-04T20:54:28.619Z,1.80
2019-02-04T20:57:08.178Z,1.80
2019-02-04T20:59:38.518Z,1.90
2019-02-04T21:02:08.289Z,2.00
2019-02-04T21:04:37.877Z,2.00
2019-02-04T21:07:16.466Z,2.00
2019-02-04T21:09:45.648Z,2.00
2019-02-04T21:12:14.940Z,1.90
2019-02-04T21:14:43.905Z,1.70
2019-02-04T21:17:22.362Z,1.80
2019-02-04T21:19:51.750Z,1.90
2019-02-04T21:22:21.175Z,1.60
2019-02-04T21:24:56.436Z,1.70
2019-02-04T21:30:11.654Z,1.80
2019-02-04T21:32:40.628Z,1.70
2019-02-04T21:35:18.749Z,1.40
2019-02-04T21:37:47.617Z,1.40
2019-02-04T21:40:16.503Z,1.60
2019-02-04T21:42:45.529Z,1.60
2019-02-04T21:45:23.254Z,1.70
2019-02-04T21:47:52.041Z,1.70
2019-02-04T21:50:22.212Z,1.80
2019-02-04T21:52:50.994Z,1.90
2019-02-04T21:55:32.117Z,2.10
2019-02-04T21:58:00.998Z,2.20
2019-02-04T22:00:32.112Z,2.20
2019-02-04T22:03:00.760Z,2.20
2019-02-04T22:05:39.055Z,2.20
2019-02-04T22:08:07.724Z,2.10
2019-02-04T22:10:36.560Z,2.10
2019-02-04T22:13:05.224Z,2.00
2019-02-04T22:15:43.301Z,1.90
2019-02-04T22:18:12.016Z,1.90
2019-02-04T22:20:41.107Z,1.80
2019-02-04T22:23:09.803Z,1.80
2019-02-04T22:28:22.729Z,1.80
2019-02-04T22:30:51.713Z,1.80
2019-02-04T22:33:20.452Z,1.80
2019-02-04T22:35:58.525Z,1.90
2019-02-04T22:38:27.281Z,1.90
2019-02-04T22:40:55.942Z,1.80
2019-02-04T22:43:24.633Z,1.80
2019-02-04T22:48:40.366Z,1.80
2019-02-04T22:51:09.055Z,1.70
2019-02-04T22:53:37.775Z,1.60
2019-02-04T22:56:15.761Z,1.60
2019-02-04T22:58:44.897Z,1.70
2019-02-04T23:01:26.470Z,1.80
2019-02-04T23:03:55.172Z,1.90
2019-02-04T23:06:33.339Z,1.80
2019-02-04T23:09:02.644Z,1.90
2019-02-04T23:11:31.732Z,1.80
2019-02-04T23:14:00.445Z,1.70
2019-02-04T23:16:38.432Z,1.80
2019-02-04T23:19:07.380Z,1.80
2019-02-04T23:21:36.529Z,1.80
2019-02-04T23:24:06.076Z,1.90
2019-02-04T23:26:43.698Z,2.00
2019-02-04T23:29:12.408Z,2.10
2019-02-04T23:31:41.119Z,2.00
2019-02-04T23:34:09.776Z,1.80
2019-02-04T23:36:48.012Z,1.70
2019-02-04T23:39:17.159Z,1.60
2019-02-04T23:41:45.964Z,1.60
2019-02-04T23:44:14.924Z,1.40
2019-02-04T23:46:52.756Z,1.20
2019-02-04T23:49:21.942Z,1.20
2019-02-04T23:51:50.606Z,1.50
2019-02-04T23:54:19.337Z,1.50
2019-02-04T23:56:56.953Z,1.70
2019-02-04T23:59:26.375Z,1.90
